sensor_id;sensor_type;location;lat;lon;timestamp;temperature;humidity
23120;DHT22;11729;50.836;4.330;2023-05-07T00:02:07;18.40;99.90
23120;DHT22;11729;50.836;4.330;2023-05-07T00:04:33;18.30;99.90
23120;DHT22;11729;50.836;4.330;2023-05-07T00:07:03;18.30;99.90
23120;DHT22;11729;50.836;4.330;2023-05-07T00:09:29;18.00;99.90
23120;DHT22;11729;50.836;4.330;2023-05-07T00:11:54;18.00;99.90
23120;DHT22;11729;50.836;4.330;2023-05-07T00:14:20;17.90;99.90
23120;DHT22;11729;50.836;4.330;2023-05-07T00:16:46;18.00;99.90
23120;DHT22;11729;50.836;4.330;2023-05-07T00:19:12;18.00;99.90
23120;DHT22;11729;50.836;4.330;2023-05-07T00:21:37;17.90;99.90
23120;DHT22;11729;50.836;4.330;2023-05-07T00:24:03;17.90;99.90
23120;DHT22;11729;50.836;4.330;2023-05-07T00:26:29;18.00;99.90
23120;DHT22;11729;50.836;4.330;2023-05-07T00:28:55;18.10;99.90
23120;DHT22;11729;50.836;4.330;2023-05-07T00:31:20;18.10;99.90
23120;DHT22;11729;50.836;4.330;2023-05-07T00:33:46;18.20;99.90
23120;DHT22;11729;50.836;4.330;2023-05-07T00:36:12;18.20;99.90
23120;DHT22;11729;50.836;4.330;2023-05-07T00:38:37;18.40;99.90
23120;DHT22;11729;50.836;4.330;2023-05-07T00:41:03;18.40;99.90
23120;DHT22;11729;50.836;4.330;2023-05-07T00:43:29;18.40;99.90
23120;DHT22;11729;50.836;4.330;2023-05-07T00:45:55;18.30;99.90
23120;DHT22;11729;50.836;4.330;2023-05-07T00:48:21;18.40;99.90
23120;DHT22;11729;50.836;4.330;2023-05-07T00:50:47;18.40;99.90
23120;DHT22;11729;50.836;4.330;2023-05-07T00:53:13;18.40;99.90
23120;DHT22;11729;50.836;4.330;2023-05-07T00:55:39;18.40;99.90
23120;DHT22;11729;50.836;4.330;2023-05-07T00:58:06;18.40;99.90
23120;DHT22;11729;50.836;4.330;2023-05-07T01:00:32;18.40;99.90
23120;DHT22;11729;50.836;4.330;2023-05-07T01:02:58;18.30;99.90
23120;DHT22;11729;50.836;4.330;2023-05-07T01:05:25;18.30;99.90
23120;DHT22;11729;50.836;4.330;2023-05-07T01:07:53;18.30;99.90
23120;DHT22;11729;50.836;4.330;2023-05-07T01:10:20;18.30;99.90
23120;DHT22;11729;50.836;4.330;2023-05-07T01:12:49;18.30;99.90
23120;DHT22;11729;50.836;4.330;2023-05-07T01:15:15;18.20;99.90
23120;DHT22;11729;50.836;4.330;2023-05-07T01:17:42;18.20;99.90
23120;DHT22;11729;50.836;4.330;2023-05-07T01:20:11;18.30;99.90
23120;DHT22;11729;50.836;4.330;2023-05-07T01:22:38;18.40;99.90
23120;DHT22;11729;50.836;4.330;2023-05-07T01:25:05;18.30;99.90
23120;DHT22;11729;50.836;4.330;2023-05-07T01:27:31;18.40;99.90
23120;DHT22;11729;50.836;4.330;2023-05-07T01:29:58;18.40;99.90
23120;DHT22;11729;50.836;4.330;2023-05-07T01:32:36;18.40;99.90
23120;DHT22;11729;50.836;4.330;2023-05-07T01:35:09;18.40;99.90
23120;DHT22;11729;50.836;4.330;2023-05-07T01:37:39;18.20;99.90
23120;DHT22;11729;50.836;4.330;2023-05-07T01:40:06;18.10;99.90
23120;DHT22;11729;50.836;4.330;2023-05-07T01:42:33;17.80;99.90
23120;DHT22;11729;50.836;4.330;2023-05-07T01:44:58;17.80;99.90
23120;DHT22;11729;50.836;4.330;2023-05-07T01:47:25;17.80;99.90
23120;DHT22;11729;50.836;4.330;2023-05-07T01:49:51;17.90;99.90
23120;DHT22;11729;50.836;4.330;2023-05-07T01:52:17;18.00;99.90
23120;DHT22;11729;50.836;4.330;2023-05-07T01:54:42;18.00;99.90
23120;DHT22;11729;50.836;4.330;2023-05-07T01:57:08;18.10;99.90
23120;DHT22;11729;50.836;4.330;2023-05-07T01:59:34;18.10;99.90
23120;DHT22;11729;50.836;4.330;2023-05-07T02:01:59;18.10;99.90
23120;DHT22;11729;50.836;4.330;2023-05-07T02:04:26;18.00;99.90
23120;DHT22;11729;50.836;4.330;2023-05-07T02:06:51;18.00;99.90
23120;DHT22;11729;50.836;4.330;2023-05-07T02:09:18;17.90;99.90
23120;DHT22;11729;50.836;4.330;2023-05-07T02:11:44;17.90;99.90
23120;DHT22;11729;50.836;4.330;2023-05-07T02:14:11;17.80;99.90
23120;DHT22;11729;50.836;4.330;2023-05-07T02:16:36;17.80;99.90
23120;DHT22;11729;50.836;4.330;2023-05-07T02:19:02;17.80;99.90
23120;DHT22;11729;50.836;4.330;2023-05-07T02:21:27;17.80;99.90
23120;DHT22;11729;50.836;4.330;2023-05-07T02:23:53;17.70;99.90
23120;DHT22;11729;50.836;4.330;2023-05-07T02:26:19;17.60;99.90
23120;DHT22;11729;50.836;4.330;2023-05-07T02:28:45;17.50;99.90
23120;DHT22;11729;50.836;4.330;2023-05-07T02:31:10;17.50;99.90
23120;DHT22;11729;50.836;4.330;2023-05-07T02:33:36;17.40;99.90
23120;DHT22;11729;50.836;4.330;2023-05-07T02:36:11;17.40;99.90
23120;DHT22;11729;50.836;4.330;2023-05-07T02:38:37;17.20;99.90
23120;DHT22;11729;50.836;4.330;2023-05-07T02:41:03;17.20;99.90
23120;DHT22;11729;50.836;4.330;2023-05-07T02:43:29;17.20;99.90
23120;DHT22;11729;50.836;4.330;2023-05-07T02:46:05;17.20;99.90
23120;DHT22;11729;50.836;4.330;2023-05-07T02:48:31;17.10;99.90
23120;DHT22;11729;50.836;4.330;2023-05-07T02:50:58;17.20;99.90
23120;DHT22;11729;50.836;4.330;2023-05-07T02:53:24;17.10;99.90
23120;DHT22;11729;50.836;4.330;2023-05-07T02:55:52;17.10;99.90
23120;DHT22;11729;50.836;4.330;2023-05-07T02:58:18;17.10;99.90
23120;DHT22;11729;50.836;4.330;2023-05-07T03:00:44;17.10;99.90
23120;DHT22;11729;50.836;4.330;2023-05-07T03:03:10;17.10;99.90
23120;DHT22;11729;50.836;4.330;2023-05-07T03:05:36;17.10;99.90
23120;DHT22;11729;50.836;4.330;2023-05-07T03:08:02;17.10;99.90
23120;DHT22;11729;50.836;4.330;2023-05-07T03:10:28;17.10;99.90
23120;DHT22;11729;50.836;4.330;2023-05-07T03:12:53;17.10;99.90
23120;DHT22;11729;50.836;4.330;2023-05-07T03:15:21;17.10;99.90
23120;DHT22;11729;50.836;4.330;2023-05-07T03:17:48;17.10;99.90
23120;DHT22;11729;50.836;4.330;2023-05-07T03:20:14;17.20;99.90
23120;DHT22;11729;50.836;4.330;2023-05-07T03:22:40;17.20;99.90
23120;DHT22;11729;50.836;4.330;2023-05-07T03:25:06;17.20;99.90
23120;DHT22;11729;50.836;4.330;2023-05-07T03:27:32;17.20;99.90
23120;DHT22;11729;50.836;4.330;2023-05-07T03:29:59;17.30;99.90
23120;DHT22;11729;50.836;4.330;2023-05-07T03:32:25;17.30;99.90
23120;DHT22;11729;50.836;4.330;2023-05-07T03:34:51;17.40;99.90
23120;DHT22;11729;50.836;4.330;2023-05-07T03:37:17;17.50;99.90
23120;DHT22;11729;50.836;4.330;2023-05-07T03:39:43;17.40;99.90
23120;DHT22;11729;50.836;4.330;2023-05-07T03:42:09;17.50;99.90
23120;DHT22;11729;50.836;4.330;2023-05-07T03:44:36;17.60;99.90
23120;DHT22;11729;50.836;4.330;2023-05-07T03:47:02;17.50;99.90
23120;DHT22;11729;50.836;4.330;2023-05-07T03:49:28;17.50;99.90
23120;DHT22;11729;50.836;4.330;2023-05-07T03:51:54;17.50;99.90
23120;DHT22;11729;50.836;4.330;2023-05-07T03:54:19;17.50;99.90
23120;DHT22;11729;50.836;4.330;2023-05-07T03:56:45;17.60;99.90
23120;DHT22;11729;50.836;4.330;2023-05-07T03:59:14;17.60;99.90
23120;DHT22;11729;50.836;4.330;2023-05-07T04:01:40;17.70;99.90
23120;DHT22;11729;50.836;4.330;2023-05-07T04:04:06;17.70;99.90
23120;DHT22;11729;50.836;4.330;2023-05-07T04:06:31;17.70;99.90
23120;DHT22;11729;50.836;4.330;2023-05-07T04:08:57;17.70;99.90
23120;DHT22;11729;50.836;4.330;2023-05-07T04:11:24;17.70;99.90
23120;DHT22;11729;50.836;4.330;2023-05-07T04:13:50;17.60;99.90
23120;DHT22;11729;50.836;4.330;2023-05-07T04:16:16;17.50;99.90
23120;DHT22;11729;50.836;4.330;2023-05-07T04:18:42;17.60;99.90
23120;DHT22;11729;50.836;4.330;2023-05-07T04:21:19;17.60;99.90
23120;DHT22;11729;50.836;4.330;2023-05-07T04:23:46;17.60;99.90
23120;DHT22;11729;50.836;4.330;2023-05-07T04:26:12;17.70;99.90
23120;DHT22;11729;50.836;4.330;2023-05-07T04:28:38;17.70;99.90
23120;DHT22;11729;50.836;4.330;2023-05-07T04:31:05;17.70;99.90
23120;DHT22;11729;50.836;4.330;2023-05-07T04:33:30;17.80;99.90
23120;DHT22;11729;50.836;4.330;2023-05-07T04:35:56;17.70;99.90
23120;DHT22;11729;50.836;4.330;2023-05-07T04:38:22;17.70;99.90
23120;DHT22;11729;50.836;4.330;2023-05-07T04:40:49;17.70;99.90
23120;DHT22;11729;50.836;4.330;2023-05-07T04:43:15;17.80;99.90
23120;DHT22;11729;50.836;4.330;2023-05-07T04:45:41;17.90;99.90
23120;DHT22;11729;50.836;4.330;2023-05-07T04:48:08;17.90;99.90
23120;DHT22;11729;50.836;4.330;2023-05-07T04:50:34;17.80;99.90
23120;DHT22;11729;50.836;4.330;2023-05-07T04:53:00;17.70;99.90
23120;DHT22;11729;50.836;4.330;2023-05-07T04:55:25;17.80;99.90
23120;DHT22;11729;50.836;4.330;2023-05-07T04:57:52;17.80;99.90
23120;DHT22;11729;50.836;4.330;2023-05-07T05:00:18;17.90;99.90
23120;DHT22;11729;50.836;4.330;2023-05-07T05:02:45;17.90;99.90
23120;DHT22;11729;50.836;4.330;2023-05-07T05:05:11;18.00;99.90
23120;DHT22;11729;50.836;4.330;2023-05-07T05:07:37;18.10;99.90
23120;DHT22;11729;50.836;4.330;2023-05-07T05:10:03;18.10;99.90
23120;DHT22;11729;50.836;4.330;2023-05-07T05:12:29;18.10;99.90
23120;DHT22;11729;50.836;4.330;2023-05-07T05:14:55;18.30;99.90
23120;DHT22;11729;50.836;4.330;2023-05-07T05:17:21;18.40;99.90
23120;DHT22;11729;50.836;4.330;2023-05-07T05:19:47;18.50;99.90
23120;DHT22;11729;50.836;4.330;2023-05-07T05:22:12;18.70;99.90
23120;DHT22;11729;50.836;4.330;2023-05-07T05:24:38;18.60;99.90
23120;DHT22;11729;50.836;4.330;2023-05-07T05:27:04;18.60;99.90
23120;DHT22;11729;50.836;4.330;2023-05-07T05:29:29;18.60;99.90
23120;DHT22;11729;50.836;4.330;2023-05-07T05:31:56;18.50;99.90
23120;DHT22;11729;50.836;4.330;2023-05-07T05:34:22;18.70;99.90
23120;DHT22;11729;50.836;4.330;2023-05-07T05:36:48;19.00;99.90
23120;DHT22;11729;50.836;4.330;2023-05-07T05:39:13;19.20;99.90
23120;DHT22;11729;50.836;4.330;2023-05-07T05:41:39;19.20;99.90
23120;DHT22;11729;50.836;4.330;2023-05-07T05:44:05;19.40;99.90
23120;DHT22;11729;50.836;4.330;2023-05-07T05:46:31;19.30;99.90
23120;DHT22;11729;50.836;4.330;2023-05-07T05:48:57;19.40;99.90
23120;DHT22;11729;50.836;4.330;2023-05-07T05:51:22;19.30;99.90
23120;DHT22;11729;50.836;4.330;2023-05-07T05:53:48;19.20;99.90
23120;DHT22;11729;50.836;4.330;2023-05-07T05:56:15;19.10;99.90
23120;DHT22;11729;50.836;4.330;2023-05-07T05:58:41;19.10;99.90
23120;DHT22;11729;50.836;4.330;2023-05-07T06:01:06;19.00;99.90
23120;DHT22;11729;50.836;4.330;2023-05-07T06:03:32;18.90;99.90
23120;DHT22;11729;50.836;4.330;2023-05-07T06:05:58;18.80;99.90
23120;DHT22;11729;50.836;4.330;2023-05-07T06:08:25;18.70;99.90
23120;DHT22;11729;50.836;4.330;2023-05-07T06:10:51;18.80;99.90
23120;DHT22;11729;50.836;4.330;2023-05-07T06:13:16;18.80;99.90
23120;DHT22;11729;50.836;4.330;2023-05-07T06:15:42;18.60;99.90
23120;DHT22;11729;50.836;4.330;2023-05-07T06:18:08;18.70;99.90
23120;DHT22;11729;50.836;4.330;2023-05-07T06:20:34;18.70;99.90
23120;DHT22;11729;50.836;4.330;2023-05-07T06:23:00;18.70;99.90
23120;DHT22;11729;50.836;4.330;2023-05-07T06:25:25;18.60;99.90
23120;DHT22;11729;50.836;4.330;2023-05-07T06:27:51;18.70;99.90
23120;DHT22;11729;50.836;4.330;2023-05-07T06:30:17;18.80;99.90
23120;DHT22;11729;50.836;4.330;2023-05-07T06:32:42;18.60;99.90
23120;DHT22;11729;50.836;4.330;2023-05-07T06:35:08;18.50;99.90
23120;DHT22;11729;50.836;4.330;2023-05-07T06:37:34;18.50;99.90
23120;DHT22;11729;50.836;4.330;2023-05-07T06:39:59;18.40;99.90
23120;DHT22;11729;50.836;4.330;2023-05-07T06:42:25;18.20;99.90
23120;DHT22;11729;50.836;4.330;2023-05-07T06:44:52;18.20;99.90
23120;DHT22;11729;50.836;4.330;2023-05-07T06:47:17;18.10;99.90
23120;DHT22;11729;50.836;4.330;2023-05-07T06:49:43;18.10;99.90
23120;DHT22;11729;50.836;4.330;2023-05-07T06:52:09;18.10;99.90
23120;DHT22;11729;50.836;4.330;2023-05-07T06:54:34;18.20;99.90
23120;DHT22;11729;50.836;4.330;2023-05-07T06:57:00;18.20;99.90
23120;DHT22;11729;50.836;4.330;2023-05-07T06:59:26;18.50;99.90
23120;DHT22;11729;50.836;4.330;2023-05-07T07:01:51;18.50;99.90
23120;DHT22;11729;50.836;4.330;2023-05-07T07:04:17;18.50;99.90
23120;DHT22;11729;50.836;4.330;2023-05-07T07:06:42;18.40;99.90
23120;DHT22;11729;50.836;4.330;2023-05-07T07:09:08;18.50;99.90
23120;DHT22;11729;50.836;4.330;2023-05-07T07:11:34;18.50;99.90
23120;DHT22;11729;50.836;4.330;2023-05-07T07:14:00;18.70;99.90
23120;DHT22;11729;50.836;4.330;2023-05-07T07:16:25;18.80;99.90
23120;DHT22;11729;50.836;4.330;2023-05-07T07:18:51;18.60;99.90
23120;DHT22;11729;50.836;4.330;2023-05-07T07:21:17;18.50;99.90
23120;DHT22;11729;50.836;4.330;2023-05-07T07:23:42;18.50;99.90
23120;DHT22;11729;50.836;4.330;2023-05-07T07:26:08;18.30;99.90
23120;DHT22;11729;50.836;4.330;2023-05-07T07:28:34;18.30;99.90
23120;DHT22;11729;50.836;4.330;2023-05-07T07:30:59;18.30;99.90
23120;DHT22;11729;50.836;4.330;2023-05-07T07:33:25;18.30;99.90
23120;DHT22;11729;50.836;4.330;2023-05-07T07:35:51;18.30;99.90
23120;DHT22;11729;50.836;4.330;2023-05-07T07:38:16;18.30;99.90
23120;DHT22;11729;50.836;4.330;2023-05-07T07:40:42;18.40;99.90
23120;DHT22;11729;50.836;4.330;2023-05-07T07:43:09;18.40;99.90
23120;DHT22;11729;50.836;4.330;2023-05-07T07:45:35;18.40;99.90
23120;DHT22;11729;50.836;4.330;2023-05-07T07:48:00;18.50;99.90
23120;DHT22;11729;50.836;4.330;2023-05-07T07:50:26;18.50;99.90
23120;DHT22;11729;50.836;4.330;2023-05-07T07:52:52;18.80;99.90
23120;DHT22;11729;50.836;4.330;2023-05-07T07:55:20;18.90;99.90
23120;DHT22;11729;50.836;4.330;2023-05-07T07:57:48;18.80;99.90
23120;DHT22;11729;50.836;4.330;2023-05-07T08:00:15;18.80;99.90
23120;DHT22;11729;50.836;4.330;2023-05-07T08:02:40;18.80;99.90
23120;DHT22;11729;50.836;4.330;2023-05-07T08:05:06;19.00;99.90
23120;DHT22;11729;50.836;4.330;2023-05-07T08:07:32;19.10;99.90
23120;DHT22;11729;50.836;4.330;2023-05-07T08:09:58;19.00;99.90
23120;DHT22;11729;50.836;4.330;2023-05-07T08:12:24;18.60;99.90
23120;DHT22;11729;50.836;4.330;2023-05-07T08:14:49;18.60;99.90
23120;DHT22;11729;50.836;4.330;2023-05-07T08:17:15;18.70;99.90
23120;DHT22;11729;50.836;4.330;2023-05-07T08:19:42;18.40;99.90
23120;DHT22;11729;50.836;4.330;2023-05-07T08:22:09;18.40;99.90
23120;DHT22;11729;50.836;4.330;2023-05-07T08:24:35;18.50;99.90
23120;DHT22;11729;50.836;4.330;2023-05-07T08:27:01;18.70;99.90
23120;DHT22;11729;50.836;4.330;2023-05-07T08:29:26;18.60;99.90
23120;DHT22;11729;50.836;4.330;2023-05-07T08:31:52;18.40;99.90
23120;DHT22;11729;50.836;4.330;2023-05-07T08:34:17;18.60;99.90
23120;DHT22;11729;50.836;4.330;2023-05-07T08:36:43;18.80;99.90
23120;DHT22;11729;50.836;4.330;2023-05-07T08:39:09;18.80;99.90
23120;DHT22;11729;50.836;4.330;2023-05-07T08:41:35;18.50;99.90
23120;DHT22;11729;50.836;4.330;2023-05-07T08:44:03;18.40;99.90
23120;DHT22;11729;50.836;4.330;2023-05-07T08:46:31;18.40;99.90
23120;DHT22;11729;50.836;4.330;2023-05-07T08:48:57;18.40;99.90
23120;DHT22;11729;50.836;4.330;2023-05-07T08:51:22;18.50;99.90
23120;DHT22;11729;50.836;4.330;2023-05-07T08:53:49;18.50;99.90
23120;DHT22;11729;50.836;4.330;2023-05-07T08:56:16;18.50;99.90
23120;DHT22;11729;50.836;4.330;2023-05-07T08:58:45;18.70;99.90
23120;DHT22;11729;50.836;4.330;2023-05-07T09:01:15;18.90;99.90
23120;DHT22;11729;50.836;4.330;2023-05-07T09:03:44;19.00;99.90
23120;DHT22;11729;50.836;4.330;2023-05-07T09:06:10;19.00;99.90
23120;DHT22;11729;50.836;4.330;2023-05-07T09:08:36;18.90;99.90
23120;DHT22;11729;50.836;4.330;2023-05-07T09:11:02;18.90;99.90
23120;DHT22;11729;50.836;4.330;2023-05-07T09:13:28;18.60;99.90
23120;DHT22;11729;50.836;4.330;2023-05-07T09:15:55;18.40;99.90
23120;DHT22;11729;50.836;4.330;2023-05-07T09:18:21;18.60;99.90
23120;DHT22;11729;50.836;4.330;2023-05-07T09:20:48;18.80;99.90
23120;DHT22;11729;50.836;4.330;2023-05-07T09:23:14;19.00;99.90
23120;DHT22;11729;50.836;4.330;2023-05-07T09:25:40;19.00;99.90
23120;DHT22;11729;50.836;4.330;2023-05-07T09:28:06;19.30;99.90
23120;DHT22;11729;50.836;4.330;2023-05-07T09:30:33;19.30;99.90
23120;DHT22;11729;50.836;4.330;2023-05-07T09:33:01;19.40;99.90
23120;DHT22;11729;50.836;4.330;2023-05-07T09:35:28;19.30;99.90
23120;DHT22;11729;50.836;4.330;2023-05-07T09:37:55;19.50;99.90
23120;DHT22;11729;50.836;4.330;2023-05-07T09:40:25;19.60;99.90
23120;DHT22;11729;50.836;4.330;2023-05-07T09:42:52;19.60;99.90
23120;DHT22;11729;50.836;4.330;2023-05-07T09:45:27;19.70;99.90
23120;DHT22;11729;50.836;4.330;2023-05-07T09:47:57;19.70;99.90
23120;DHT22;11729;50.836;4.330;2023-05-07T09:50:28;19.70;99.90
23120;DHT22;11729;50.836;4.330;2023-05-07T09:52:55;19.80;99.90
23120;DHT22;11729;50.836;4.330;2023-05-07T09:55:21;19.70;99.90
23120;DHT22;11729;50.836;4.330;2023-05-07T09:57:51;19.70;99.90
23120;DHT22;11729;50.836;4.330;2023-05-07T10:00:19;19.80;99.90
23120;DHT22;11729;50.836;4.330;2023-05-07T10:02:50;19.60;99.90
23120;DHT22;11729;50.836;4.330;2023-05-07T10:05:18;19.50;99.90
23120;DHT22;11729;50.836;4.330;2023-05-07T10:07:46;19.50;99.90
23120;DHT22;11729;50.836;4.330;2023-05-07T10:10:12;19.50;99.90
23120;DHT22;11729;50.836;4.330;2023-05-07T10:12:40;19.40;99.90
23120;DHT22;11729;50.836;4.330;2023-05-07T10:15:07;19.40;99.90
23120;DHT22;11729;50.836;4.330;2023-05-07T10:17:38;19.50;99.90
23120;DHT22;11729;50.836;4.330;2023-05-07T10:20:05;19.60;99.90
23120;DHT22;11729;50.836;4.330;2023-05-07T10:22:57;19.60;99.90
23120;DHT22;11729;50.836;4.330;2023-05-07T10:25:31;19.40;99.90
23120;DHT22;11729;50.836;4.330;2023-05-07T10:28:06;19.70;99.90
23120;DHT22;11729;50.836;4.330;2023-05-07T10:33:24;19.80;99.90
23120;DHT22;11729;50.836;4.330;2023-05-07T10:35:58;19.80;99.90
23120;DHT22;11729;50.836;4.330;2023-05-07T10:38:25;19.90;99.90
23120;DHT22;11729;50.836;4.330;2023-05-07T10:40:52;19.70;99.90
23120;DHT22;11729;50.836;4.330;2023-05-07T10:43:18;19.60;99.90
23120;DHT22;11729;50.836;4.330;2023-05-07T10:45:44;19.40;99.90
23120;DHT22;11729;50.836;4.330;2023-05-07T10:48:29;19.50;99.90
23120;DHT22;11729;50.836;4.330;2023-05-07T10:51:31;19.10;99.90
23120;DHT22;11729;50.836;4.330;2023-05-07T10:56:37;19.50;99.90
23120;DHT22;11729;50.836;4.330;2023-05-07T11:02:02;19.90;99.90
23120;DHT22;11729;50.836;4.330;2023-05-07T11:04:29;20.10;99.90
23120;DHT22;11729;50.836;4.330;2023-05-07T11:15:10;20.10;99.90
23120;DHT22;11729;50.836;4.330;2023-05-07T11:17:55;20.10;99.90
23120;DHT22;11729;50.836;4.330;2023-05-07T11:20:21;20.20;99.90
23120;DHT22;11729;50.836;4.330;2023-05-07T11:23:06;20.20;99.90
23120;DHT22;11729;50.836;4.330;2023-05-07T11:25:32;20.30;99.90
23120;DHT22;11729;50.836;4.330;2023-05-07T11:28:05;20.40;99.90
23120;DHT22;11729;50.836;4.330;2023-05-07T11:30:31;20.30;99.90
23120;DHT22;11729;50.836;4.330;2023-05-07T11:32:57;20.40;99.90
23120;DHT22;11729;50.836;4.330;2023-05-07T11:35:24;20.50;99.90
23120;DHT22;11729;50.836;4.330;2023-05-07T11:37:51;20.70;99.90
23120;DHT22;11729;50.836;4.330;2023-05-07T11:40:23;20.60;99.90
23120;DHT22;11729;50.836;4.330;2023-05-07T11:42:48;20.70;99.90
23120;DHT22;11729;50.836;4.330;2023-05-07T11:45:23;20.90;99.90
23120;DHT22;11729;50.836;4.330;2023-05-07T11:47:50;21.10;99.90
23120;DHT22;11729;50.836;4.330;2023-05-07T11:50:16;21.30;99.90
23120;DHT22;11729;50.836;4.330;2023-05-07T11:52:50;21.40;99.90
23120;DHT22;11729;50.836;4.330;2023-05-07T11:55:18;21.30;99.90
23120;DHT22;11729;50.836;4.330;2023-05-07T11:57:44;21.40;99.90
23120;DHT22;11729;50.836;4.330;2023-05-07T12:00:10;21.40;99.90
23120;DHT22;11729;50.836;4.330;2023-05-07T12:02:36;21.40;99.90
23120;DHT22;11729;50.836;4.330;2023-05-07T12:05:02;21.40;99.90
23120;DHT22;11729;50.836;4.330;2023-05-07T12:07:27;21.50;99.90
23120;DHT22;11729;50.836;4.330;2023-05-07T12:09:53;21.60;99.90
23120;DHT22;11729;50.836;4.330;2023-05-07T12:12:19;21.70;99.90
23120;DHT22;11729;50.836;4.330;2023-05-07T12:14:45;21.80;99.90
23120;DHT22;11729;50.836;4.330;2023-05-07T12:17:12;21.70;99.90
23120;DHT22;11729;50.836;4.330;2023-05-07T12:19:41;21.80;99.90
23120;DHT22;11729;50.836;4.330;2023-05-07T12:22:08;21.80;99.90
23120;DHT22;11729;50.836;4.330;2023-05-07T12:25:03;21.90;99.90
23120;DHT22;11729;50.836;4.330;2023-05-07T12:27:29;22.00;99.90
23120;DHT22;11729;50.836;4.330;2023-05-07T12:29:57;22.20;99.90
23120;DHT22;11729;50.836;4.330;2023-05-07T12:32:23;22.30;99.90
23120;DHT22;11729;50.836;4.330;2023-05-07T12:34:52;22.40;99.90
23120;DHT22;11729;50.836;4.330;2023-05-07T12:37:25;22.20;99.90
23120;DHT22;11729;50.836;4.330;2023-05-07T12:40:08;22.40;99.90
23120;DHT22;11729;50.836;4.330;2023-05-07T12:42:39;22.30;99.90
23120;DHT22;11729;50.836;4.330;2023-05-07T12:45:17;22.40;99.90
23120;DHT22;11729;50.836;4.330;2023-05-07T12:47:46;22.40;99.90
23120;DHT22;11729;50.836;4.330;2023-05-07T12:50:13;22.30;99.90
23120;DHT22;11729;50.836;4.330;2023-05-07T12:52:39;22.40;99.90
23120;DHT22;11729;50.836;4.330;2023-05-07T12:55:07;22.70;99.90
23120;DHT22;11729;50.836;4.330;2023-05-07T12:57:39;22.60;99.90
23120;DHT22;11729;50.836;4.330;2023-05-07T13:00:06;22.60;99.90
23120;DHT22;11729;50.836;4.330;2023-05-07T13:02:33;22.90;99.90
23120;DHT22;11729;50.836;4.330;2023-05-07T13:05:00;23.20;99.90
23120;DHT22;11729;50.836;4.330;2023-05-07T13:07:25;23.10;99.90
23120;DHT22;11729;50.836;4.330;2023-05-07T13:09:51;22.90;99.90
23120;DHT22;11729;50.836;4.330;2023-05-07T13:12:16;22.80;99.90
23120;DHT22;11729;50.836;4.330;2023-05-07T13:14:42;22.90;99.90
23120;DHT22;11729;50.836;4.330;2023-05-07T13:17:08;22.80;99.90
23120;DHT22;11729;50.836;4.330;2023-05-07T13:19:34;22.80;99.90
23120;DHT22;11729;50.836;4.330;2023-05-07T13:22:00;22.70;99.90
23120;DHT22;11729;50.836;4.330;2023-05-07T13:24:26;22.50;99.90
23120;DHT22;11729;50.836;4.330;2023-05-07T13:26:51;22.60;99.90
23120;DHT22;11729;50.836;4.330;2023-05-07T13:29:17;22.70;99.90
23120;DHT22;11729;50.836;4.330;2023-05-07T13:31:42;22.90;99.90
23120;DHT22;11729;50.836;4.330;2023-05-07T13:34:09;22.30;99.90
23120;DHT22;11729;50.836;4.330;2023-05-07T13:36:35;22.10;99.90
23120;DHT22;11729;50.836;4.330;2023-05-07T13:39:04;21.90;99.90
23120;DHT22;11729;50.836;4.330;2023-05-07T13:41:31;21.90;99.90
23120;DHT22;11729;50.836;4.330;2023-05-07T13:43:57;22.10;99.90
23120;DHT22;11729;50.836;4.330;2023-05-07T13:46:22;22.30;99.90
23120;DHT22;11729;50.836;4.330;2023-05-07T13:48:48;22.40;99.90
23120;DHT22;11729;50.836;4.330;2023-05-07T13:51:13;22.20;99.90
23120;DHT22;11729;50.836;4.330;2023-05-07T13:53:39;21.90;99.90
23120;DHT22;11729;50.836;4.330;2023-05-07T13:56:05;21.90;99.90
23120;DHT22;11729;50.836;4.330;2023-05-07T13:58:31;21.80;99.90
23120;DHT22;11729;50.836;4.330;2023-05-07T14:00:56;21.90;99.90
23120;DHT22;11729;50.836;4.330;2023-05-07T14:03:22;22.00;99.90
23120;DHT22;11729;50.836;4.330;2023-05-07T14:05:48;22.00;99.90
23120;DHT22;11729;50.836;4.330;2023-05-07T14:08:13;22.10;99.90
23120;DHT22;11729;50.836;4.330;2023-05-07T14:10:40;22.20;99.90
23120;DHT22;11729;50.836;4.330;2023-05-07T14:13:05;22.20;99.90
23120;DHT22;11729;50.836;4.330;2023-05-07T14:15:31;22.30;99.90
23120;DHT22;11729;50.836;4.330;2023-05-07T14:18:00;22.20;99.90
23120;DHT22;11729;50.836;4.330;2023-05-07T14:20:25;22.30;99.90
23120;DHT22;11729;50.836;4.330;2023-05-07T14:22:51;21.90;99.90
23120;DHT22;11729;50.836;4.330;2023-05-07T14:25:17;21.80;99.90
23120;DHT22;11729;50.836;4.330;2023-05-07T14:27:43;21.80;99.90
23120;DHT22;11729;50.836;4.330;2023-05-07T14:30:09;21.90;99.90
23120;DHT22;11729;50.836;4.330;2023-05-07T14:32:35;21.40;99.90
23120;DHT22;11729;50.836;4.330;2023-05-07T14:35:00;21.50;99.90
23120;DHT22;11729;50.836;4.330;2023-05-07T14:37:26;21.60;99.90
23120;DHT22;11729;50.836;4.330;2023-05-07T14:39:52;22.10;99.90
23120;DHT22;11729;50.836;4.330;2023-05-07T14:42:17;22.00;99.90
23120;DHT22;11729;50.836;4.330;2023-05-07T14:44:43;21.80;99.90
23120;DHT22;11729;50.836;4.330;2023-05-07T14:47:10;21.90;99.90
23120;DHT22;11729;50.836;4.330;2023-05-07T14:49:36;21.90;99.90
23120;DHT22;11729;50.836;4.330;2023-05-07T14:52:02;21.90;99.90
23120;DHT22;11729;50.836;4.330;2023-05-07T14:54:28;21.90;99.90
23120;DHT22;11729;50.836;4.330;2023-05-07T14:56:54;21.90;99.90
23120;DHT22;11729;50.836;4.330;2023-05-07T14:59:21;22.00;99.90
23120;DHT22;11729;50.836;4.330;2023-05-07T15:01:47;22.00;99.90
23120;DHT22;11729;50.836;4.330;2023-05-07T15:04:13;21.80;99.90
23120;DHT22;11729;50.836;4.330;2023-05-07T15:06:38;21.70;99.90
23120;DHT22;11729;50.836;4.330;2023-05-07T15:09:04;21.60;99.90
23120;DHT22;11729;50.836;4.330;2023-05-07T15:11:30;21.60;99.90
23120;DHT22;11729;50.836;4.330;2023-05-07T15:13:56;21.60;99.90
23120;DHT22;11729;50.836;4.330;2023-05-07T15:16:22;21.70;99.90
23120;DHT22;11729;50.836;4.330;2023-05-07T15:18:48;21.70;99.90
23120;DHT22;11729;50.836;4.330;2023-05-07T15:21:14;21.70;99.90
23120;DHT22;11729;50.836;4.330;2023-05-07T15:23:39;21.80;99.90
23120;DHT22;11729;50.836;4.330;2023-05-07T15:26:06;21.30;99.90
23120;DHT22;11729;50.836;4.330;2023-05-07T15:28:33;21.40;99.90
23120;DHT22;11729;50.836;4.330;2023-05-07T15:30:59;21.10;99.90
23120;DHT22;11729;50.836;4.330;2023-05-07T15:33:25;21.30;99.90
23120;DHT22;11729;50.836;4.330;2023-05-07T15:35:50;21.30;99.90
23120;DHT22;11729;50.836;4.330;2023-05-07T15:38:16;21.30;99.90
23120;DHT22;11729;50.836;4.330;2023-05-07T15:40:42;21.30;99.90
23120;DHT22;11729;50.836;4.330;2023-05-07T15:43:08;21.40;99.90
23120;DHT22;11729;50.836;4.330;2023-05-07T15:45:41;21.40;99.90